Terminal Aerodrome Forecast
Issued by NWS Tulsa, OK

Home | Current Version | Previous Version | Text Only | Print | Product List | Glossary On
Versions: 1 2 3 4 5 6 7 8 9 10 11 12
000
FTUS44 KTSA 272000 AAA
TAFFSM
TAF AMD
KFSM 272044Z 2721/2818 32007KT P6SM SCT020 OVC060
      TEMPO 2721/2801 3SM -RA OVC015
     FM280100 33006KT P6SM BKN015 OVC060
      TEMPO 2801/2803 4SM -RASNPL
     FM280900 33006KT P6SM BKN100
     FM281200 VRB04KT P6SM BKN250=

USA.gov is the U.S. government's official web portal to all federal, state and local government web resources and services.